createdAt,value
2022-10-09T00:00:02.421Z,7.9
2022-10-09T00:20:02.929Z,7.7
2022-10-09T00:40:02.364Z,7.4
2022-10-09T01:00:02.659Z,7.2
2022-10-09T01:20:03.279Z,7.1
2022-10-09T01:40:02.724Z,6.8
2022-10-09T02:00:03.003Z,6.5
2022-10-09T02:20:02.486Z,6.5
2022-10-09T02:40:05.912Z,6.4
2022-10-09T03:00:03.154Z,6.4
2022-10-09T03:20:02.702Z,6.1
2022-10-09T03:40:03.173Z,5.9
2022-10-09T04:00:02.552Z,5.7
2022-10-09T04:20:02.942Z,5.6
2022-10-09T04:40:02.492Z,5.3
2022-10-09T05:00:02.803Z,5.1
2022-10-09T05:20:07.633Z,4.9
2022-10-09T05:40:03.062Z,4.8
2022-10-09T06:00:02.332Z,4.7
2022-10-09T06:20:03.213Z,4.9
2022-10-09T06:40:02.455Z,5.3
2022-10-09T07:00:02.684Z,5.9
2022-10-09T07:20:02.565Z,6.8
2022-10-09T07:40:02.844Z,7.7
2022-10-09T08:00:02.118Z,9
2022-10-09T08:20:02.480Z,10.5
2022-10-09T08:40:02.853Z,11.8
2022-10-09T09:00:02.113Z,13.5
2022-10-09T09:20:02.658Z,14.8
2022-10-09T10:00:02.688Z,17.2
2022-10-09T10:20:03.087Z,17.5
2022-10-09T10:40:02.391Z,17.7
2022-10-09T11:00:02.587Z,18.2
2022-10-09T11:20:02.459Z,18.5
2022-10-09T11:40:02.958Z,18.6
2022-10-09T12:00:02.336Z,17.6
2022-10-09T12:20:02.951Z,17.5
2022-10-09T12:40:02.177Z,17.3
2022-10-09T13:00:02.542Z,17
2022-10-09T13:20:02.965Z,16.4
2022-10-09T13:40:02.519Z,16
2022-10-09T14:00:02.907Z,15.7
2022-10-09T14:20:02.327Z,15.6
2022-10-09T14:40:02.878Z,15.7
2022-10-09T15:00:02.265Z,15.5
2022-10-09T15:20:02.826Z,15.2
2022-10-09T15:40:02.149Z,14.9
2022-10-09T16:00:02.819Z,14.5
2022-10-09T16:20:02.174Z,14
2022-10-09T16:40:02.431Z,13.3
2022-10-09T17:00:02.859Z,12.5
2022-10-09T17:40:03.045Z,11.2
2022-10-09T18:00:02.982Z,10.8
2022-10-09T18:20:03.641Z,10.4
2022-10-09T18:40:03.287Z,10
2022-10-09T19:00:03.023Z,9.5
2022-10-09T19:20:03.237Z,9.2
2022-10-09T19:40:02.736Z,8.8
2022-10-09T20:00:03.035Z,8.6
2022-10-09T20:20:02.517Z,8.6
2022-10-09T20:40:02.778Z,8.8
2022-10-09T21:00:03.365Z,8.9
2022-10-09T21:40:02.577Z,8.9
2022-10-09T22:00:03.136Z,8.6
2022-10-09T22:20:02.798Z,8.5
2022-10-09T23:00:03.132Z,8.2
2022-10-09T23:20:02.974Z,7.9
2022-10-09T23:40:02.119Z,7.7
